KTVL/TVL METAR and TAF weather

Enter ICAO airport designator
Station Type Date Time Source
KTVL METAR 2019/10/15 03:53 UTC NOAA

KTVL 150353Z AUTO 00000KT 10SM CLR 04/M05 A3017 RMK AO2 SLP210 T00391050


Station Type Date Time Source
KTVL Decoded METAR 2019/10/15 03:53 UTC NOAA

SOUTH LAKE TAHOE AIRPORT, CA, United States (KTVL) 38-53N 119-59W 1925M
Oct 14, 2019 - 11:53 PM EDT / 2019.10.15 0353 UTC
Wind: Calm:0
Visibility: 10 mile(s):0
Sky conditions: clear
Temperature: 39.0 F (3.9 C)
Dew Point: 23.0 F (-5.0 C)
Relative Humidity: 52%
Pressure (altimeter): 30.17 in. Hg (1021 hPa)
ob: KTVL 150353Z AUTO 00000KT 10SM CLR 04/M05 A3017 RMK AO2 SLP210 T00391050
cycle: 4

Station Type Date Time Source
KTVL TAF 2019/10/14 18:27 UTC NOAA

TAF KTVL 141724Z 1418/1518 VRB04KT P6SM SKC
FM141900 04007KT P6SM SKC
FM150100 VRB03KT P6SM SKC

Example: see airport list